createdAt,value
2023-03-10T00:01:26.167Z,99243.84
2023-03-10T00:03:55.660Z,99227.41
2023-03-10T00:06:28.254Z,99219.59
2023-03-10T00:08:55.997Z,99220.44
2023-03-10T00:11:23.627Z,99210.00
2023-03-10T00:13:51.027Z,99200.47
2023-03-10T00:16:27.089Z,99199.59
2023-03-10T00:18:54.782Z,99206.50
2023-03-10T00:21:25.021Z,99187.50
2023-03-10T00:23:52.813Z,99178.84
2023-03-10T00:26:21.568Z,99175.38
2023-03-10T00:28:49.620Z,99174.47
2023-03-10T00:31:19.304Z,99156.31
2023-03-10T00:33:46.742Z,99152.84
2023-03-10T00:36:15.162Z,99154.59
2023-03-10T00:38:43.957Z,99158.03
2023-03-10T00:41:15.613Z,99155.38
2023-03-10T00:43:43.613Z,99140.66
2023-03-10T00:46:11.500Z,99138.94
2023-03-10T00:48:39.703Z,99130.31
2023-03-10T00:51:07.347Z,99128.56
2023-03-10T00:53:36.671Z,99129.38
2023-03-10T00:56:08.262Z,99120.72
2023-03-10T00:58:36.117Z,99126.78
2023-03-10T01:01:04.998Z,99115.53
2023-03-10T01:03:36.098Z,99106.88
2023-03-10T01:06:03.361Z,99103.41
2023-03-10T01:08:30.529Z,99115.47
2023-03-10T01:10:57.747Z,99119.75
2023-03-10T01:13:25.004Z,99105.91
2023-03-10T01:15:52.649Z,99110.25
2023-03-10T01:18:21.420Z,99100.72
2023-03-10T01:20:49.363Z,99098.13
2023-03-10T01:23:22.684Z,99095.50
2023-03-10T01:25:51.107Z,99087.72
2023-03-10T01:28:20.738Z,99092.91
2023-03-10T01:30:48.836Z,99089.47
2023-03-10T01:33:17.990Z,99092.06
2023-03-10T01:35:45.663Z,99084.31
2023-03-10T01:38:13.475Z,99085.16
2023-03-10T01:40:41.404Z,99080.78
2023-03-10T01:43:20.840Z,99072.97
2023-03-10T01:45:48.293Z,99066.06
2023-03-10T01:48:19.986Z,99072.09
2023-03-10T01:50:56.479Z,99075.59
2023-03-10T01:53:25.978Z,99070.41
2023-03-10T01:55:59.081Z,99081.66
2023-03-10T01:58:33.122Z,99066.09
2023-03-10T02:01:01.258Z,99063.50
2023-03-10T02:03:34.526Z,99068.66
2023-03-10T02:06:08.868Z,99064.34
2023-03-10T02:08:44.565Z,99051.38
2023-03-10T02:11:14.984Z,99057.44
2023-03-10T02:13:43.539Z,99049.72
2023-03-10T02:16:11.302Z,99061.84
2023-03-10T02:18:41.409Z,99057.53
2023-03-10T02:21:28.842Z,99058.38
2023-03-10T02:24:11.638Z,99041.09
2023-03-10T02:26:50.545Z,99039.44
2023-03-10T02:29:48.741Z,99047.19
2023-03-10T02:32:25.418Z,99046.38
2023-03-10T02:34:53.139Z,99043.75
2023-03-10T02:37:30.644Z,99026.47
2023-03-10T02:39:58.798Z,99047.19
2023-03-10T02:42:35.483Z,99035.97
2023-03-10T02:45:04.288Z,99029.06
2023-03-10T02:47:33.082Z,99037.66
2023-03-10T02:50:00.368Z,99028.19
2023-03-10T02:52:44.887Z,99031.66
2023-03-10T02:55:17.102Z,99023.00
2023-03-10T02:57:44.971Z,99019.59
2023-03-10T03:00:13.289Z,99023.00
2023-03-10T03:02:41.180Z,99023.88
2023-03-10T03:05:08.996Z,99024.75
2023-03-10T03:07:36.343Z,99022.19
2023-03-10T03:10:04.868Z,99022.16
2023-03-10T03:12:32.181Z,99016.97
2023-03-10T03:14:59.604Z,99012.66
2023-03-10T03:17:28.101Z,99016.16
2023-03-10T03:19:55.592Z,99015.31
2023-03-10T03:22:23.656Z,99004.03
2023-03-10T03:24:51.033Z,99005.78
2023-03-10T03:27:18.433Z,99010.09
2023-03-10T03:29:46.033Z,98999.72
2023-03-10T03:32:14.057Z,99003.19
2023-03-10T03:34:41.484Z,99007.50
2023-03-10T03:37:09.856Z,99007.50
2023-03-10T03:39:41.982Z,99007.53
2023-03-10T03:42:10.040Z,98997.16
2023-03-10T03:44:44.630Z,99006.63
2023-03-10T03:47:12.709Z,99004.03
2023-03-10T03:49:40.283Z,98997.13
2023-03-10T03:52:08.226Z,99001.44
2023-03-10T03:54:35.951Z,98998.84
2023-03-10T03:57:03.797Z,98999.72
2023-03-10T03:59:31.728Z,99004.88
2023-03-10T04:01:59.173Z,98998.81
2023-03-10T04:04:26.884Z,98991.91
2023-03-10T04:06:55.924Z,98987.59
2023-03-10T04:09:23.925Z,99000.53
2023-03-10T04:11:51.748Z,98993.63
2023-03-10T04:14:20.857Z,98997.97
2023-03-10T04:16:48.378Z,98987.56
2023-03-10T04:19:16.239Z,99002.25
2023-03-10T04:21:47.196Z,98997.97
2023-03-10T04:24:14.834Z,99007.44
2023-03-10T04:26:42.867Z,98990.16
2023-03-10T04:29:10.661Z,98993.59
2023-03-10T04:31:41.150Z,98993.63
2023-03-10T04:34:10.485Z,98997.94
2023-03-10T04:36:39.425Z,98985.84
2023-03-10T04:39:07.117Z,98994.50
2023-03-10T04:41:34.847Z,99000.53
2023-03-10T04:44:03.494Z,98998.81
2023-03-10T04:46:32.766Z,98997.06
2023-03-10T04:49:01.275Z,99000.53
2023-03-10T04:51:28.686Z,98990.19
2023-03-10T04:53:57.855Z,99002.31
2023-03-10T04:56:30.054Z,98999.69
2023-03-10T04:58:57.948Z,98997.09
2023-03-10T05:01:26.066Z,98990.16
2023-03-10T05:04:04.317Z,98989.34
2023-03-10T05:06:33.091Z,98986.78
2023-03-10T05:09:20.617Z,98998.88
2023-03-10T05:11:51.786Z,98998.88
2023-03-10T05:14:19.180Z,98991.06
2023-03-10T05:16:48.807Z,98987.59
2023-03-10T05:19:17.256Z,98995.38
2023-03-10T05:21:45.044Z,98988.47
2023-03-10T05:24:12.514Z,98985.00
2023-03-10T05:26:40.091Z,98984.13
2023-03-10T05:29:07.734Z,98986.69
2023-03-10T05:31:56.472Z,98988.38
2023-03-10T05:34:30.826Z,98991.00
2023-03-10T05:37:00.973Z,99000.50
2023-03-10T05:39:29.174Z,98997.00
2023-03-10T05:41:59.229Z,98998.69
2023-03-10T05:44:29.308Z,99000.38
2023-03-10T05:46:56.736Z,99006.38
2023-03-10T05:49:24.732Z,99006.34
2023-03-10T05:51:53.069Z,99007.16
2023-03-10T05:54:23.706Z,99009.72
2023-03-10T05:56:51.222Z,99003.63
2023-03-10T05:59:22.084Z,99007.94
2023-03-10T06:01:52.264Z,99000.16
2023-03-10T06:04:19.897Z,99005.34
2023-03-10T06:06:47.223Z,99019.13
2023-03-10T06:09:14.433Z,99013.00
2023-03-10T06:11:41.688Z,99029.41
2023-03-10T06:14:09.769Z,99024.16
2023-03-10T06:16:37.369Z,99024.16
2023-03-10T06:19:04.626Z,99014.56
2023-03-10T06:21:31.995Z,99018.88
2023-03-10T06:24:00.606Z,99027.53
2023-03-10T06:26:28.541Z,99018.00
2023-03-10T06:28:55.947Z,99022.31
2023-03-10T06:31:27.408Z,99019.72
2023-03-10T06:33:58.690Z,99019.69
2023-03-10T06:36:28.189Z,99015.41
2023-03-10T06:38:56.835Z,99019.72
2023-03-10T06:41:24.628Z,99017.06
2023-03-10T06:43:51.939Z,99019.66
2023-03-10T06:46:19.434Z,99011.00
2023-03-10T06:48:46.883Z,99013.56
2023-03-10T06:51:17.382Z,99020.44
2023-03-10T06:53:44.972Z,99014.34
2023-03-10T06:56:15.103Z,99019.47
2023-03-10T06:58:43.431Z,99009.00
2023-03-10T07:01:20.697Z,99002.94
2023-03-10T07:03:48.396Z,99000.31
2023-03-10T07:06:15.659Z,99013.19
2023-03-10T07:08:43.075Z,99010.56
2023-03-10T07:11:10.435Z,99019.16
2023-03-10T07:13:39.414Z,99019.16
2023-03-10T07:16:08.712Z,99027.75
2023-03-10T07:18:36.100Z,99016.47
2023-03-10T07:21:11.790Z,99014.75
2023-03-10T07:23:40.240Z,99020.78
2023-03-10T07:26:10.310Z,99021.59
2023-03-10T07:28:37.995Z,99023.28
2023-03-10T07:31:08.363Z,99025.00
2023-03-10T07:33:36.194Z,99039.72
2023-03-10T07:36:10.782Z,99046.59
2023-03-10T07:38:38.492Z,99045.72
2023-03-10T07:41:08.442Z,99049.16
2023-03-10T07:43:36.104Z,99056.94
2023-03-10T07:46:08.091Z,99063.84
2023-03-10T07:48:35.684Z,99064.72
2023-03-10T07:51:05.436Z,99072.53
2023-03-10T07:53:33.214Z,99077.72
2023-03-10T07:56:04.960Z,99070.78
2023-03-10T07:58:35.512Z,99062.16
2023-03-10T08:01:04.532Z,99055.25
2023-03-10T08:03:34.164Z,99056.19
2023-03-10T08:06:02.617Z,99053.56
2023-03-10T08:08:30.205Z,99067.44
2023-03-10T08:11:16.313Z,99070.00
2023-03-10T08:13:46.265Z,99057.09
2023-03-10T08:16:19.087Z,99064.91
2023-03-10T08:18:46.497Z,99062.31
2023-03-10T08:21:13.780Z,99071.84
2023-03-10T08:23:41.245Z,99077.06
2023-03-10T08:26:12.546Z,99089.16
2023-03-10T08:28:41.368Z,99097.84
2023-03-10T08:31:14.571Z,99105.59
2023-03-10T08:33:43.389Z,99110.78
2023-03-10T08:36:20.094Z,99119.44
2023-03-10T08:38:48.140Z,99123.78
2023-03-10T08:41:24.605Z,99124.63
2023-03-10T08:43:54.562Z,99118.63
2023-03-10T08:46:24.780Z,99116.97
2023-03-10T08:48:52.148Z,99112.69
2023-03-10T08:51:21.618Z,99110.94
2023-03-10T08:53:50.350Z,99113.53
2023-03-10T08:56:20.717Z,99119.69
2023-03-10T08:58:48.478Z,99111.09
2023-03-10T09:01:17.399Z,99112.84
2023-03-10T09:03:45.711Z,99098.13
2023-03-10T09:06:14.107Z,99108.56
2023-03-10T09:08:41.746Z,99100.81
2023-03-10T09:11:14.481Z,99092.25
2023-03-10T09:13:41.783Z,99088.91
2023-03-10T09:16:13.734Z,99103.56
2023-03-10T09:18:41.653Z,99101.00
2023-03-10T09:21:11.040Z,99111.38
2023-03-10T09:23:41.358Z,99114.00
2023-03-10T09:26:08.891Z,99106.28
2023-03-10T09:28:36.739Z,99106.25
2023-03-10T09:31:05.644Z,99107.13
2023-03-10T09:33:33.370Z,99119.19
2023-03-10T09:36:07.388Z,99117.41
2023-03-10T09:38:36.262Z,99129.53
2023-03-10T09:41:38.128Z,99132.19
2023-03-10T09:44:26.462Z,99147.63
2023-03-10T09:47:25.978Z,99170.09
2023-03-10T09:50:08.233Z,99162.31
2023-03-10T09:52:47.587Z,99166.63
2023-03-10T09:55:17.717Z,99155.38
2023-03-10T09:57:48.249Z,99156.31
2023-03-10T10:00:22.641Z,99139.06
2023-03-10T10:02:56.761Z,99142.56
2023-03-10T10:05:27.117Z,99148.66
2023-03-10T10:07:57.503Z,99154.81
2023-03-10T10:10:31.395Z,99157.47
2023-03-10T10:13:05.718Z,99152.38
2023-03-10T10:15:38.371Z,99160.13
2023-03-10T10:18:17.829Z,99174.81
2023-03-10T10:20:51.394Z,99185.06
2023-03-10T10:23:38.012Z,99175.56
2023-03-10T10:26:23.432Z,99172.94
2023-03-10T10:29:01.595Z,99171.25
2023-03-10T10:31:32.182Z,99162.66
2023-03-10T10:34:04.111Z,99163.53
2023-03-10T10:36:48.308Z,99155.91
2023-03-10T10:39:33.778Z,99162.06
2023-03-10T10:42:21.090Z,99171.69
2023-03-10T10:44:55.981Z,99180.31
2023-03-10T10:47:36.983Z,99183.75
2023-03-10T10:50:24.302Z,99182.81
2023-03-10T10:53:10.946Z,99176.66
2023-03-10T10:55:40.706Z,99171.50
2023-03-10T10:58:44.702Z,99181.06
2023-03-10T11:01:14.996Z,99173.28
2023-03-10T11:03:45.067Z,99168.94
2023-03-10T11:06:24.092Z,99179.25
2023-03-10T11:08:52.252Z,99158.56
2023-03-10T11:11:49.693Z,99166.28
2023-03-10T11:14:26.613Z,99174.03
2023-03-10T11:17:25.033Z,99184.44
2023-03-10T11:20:23.670Z,99180.09
2023-03-10T11:23:09.444Z,99182.75
2023-03-10T11:26:17.614Z,99185.47
2023-03-10T11:28:47.777Z,99189.81
2023-03-10T11:31:38.841Z,99185.50
2023-03-10T11:34:30.334Z,99173.41
2023-03-10T11:37:32.339Z,99160.47
2023-03-10T11:40:19.837Z,99165.69
2023-03-10T11:42:59.637Z,99161.38
2023-03-10T11:45:39.654Z,99164.00
2023-03-10T11:48:35.279Z,99157.16
2023-03-10T11:51:05.002Z,99163.97
2023-03-10T11:53:44.469Z,99165.75
2023-03-10T11:56:15.062Z,99181.34
2023-03-10T11:59:13.637Z,99174.47
2023-03-10T12:01:53.281Z,99171.88
2023-03-10T12:04:35.438Z,99170.97
2023-03-10T12:07:09.129Z,99177.97
2023-03-10T12:09:49.358Z,99190.16
2023-03-10T12:12:22.835Z,99170.25
2023-03-10T12:14:51.762Z,99168.50
2023-03-10T12:17:19.547Z,99166.78
2023-03-10T12:20:12.023Z,99158.13
2023-03-10T12:22:50.939Z,99158.13
2023-03-10T12:25:30.784Z,99171.13
2023-03-10T12:28:26.225Z,99167.63
2023-03-10T12:30:57.765Z,99178.88
2023-03-10T12:33:31.021Z,99180.63
2023-03-10T12:36:27.266Z,99186.69
2023-03-10T12:39:29.151Z,99182.28
2023-03-10T12:42:01.453Z,99171.84
2023-03-10T12:44:50.075Z,99174.44
2023-03-10T12:47:40.027Z,99171.81
2023-03-10T12:50:20.291Z,99170.06
2023-03-10T12:52:58.239Z,99163.09
2023-03-10T12:55:28.828Z,99184.69
2023-03-10T12:58:10.580Z,99168.19
2023-03-10T13:00:58.454Z,99179.41
2023-03-10T13:03:32.031Z,99184.59
2023-03-10T13:06:01.645Z,99179.41
2023-03-10T13:08:39.970Z,99190.63
2023-03-10T13:11:30.374Z,99181.06
2023-03-10T13:14:02.134Z,99177.63
2023-03-10T13:16:30.228Z,99180.22
2023-03-10T13:19:00.471Z,99175.88
2023-03-10T13:21:32.390Z,99174.03
2023-03-10T13:24:01.748Z,99172.28
2023-03-10T13:26:30.363Z,99174.03
2023-03-10T13:29:00.643Z,99178.34
2023-03-10T13:31:34.735Z,99180.94
2023-03-10T13:34:14.309Z,99178.34
2023-03-10T13:36:41.828Z,99182.66
2023-03-10T13:39:18.716Z,99176.63
2023-03-10T13:41:49.286Z,99178.34
2023-03-10T13:44:34.183Z,99178.38
2023-03-10T13:47:04.589Z,99187.03
2023-03-10T13:49:35.214Z,99188.75
2023-03-10T13:52:12.781Z,99192.22
2023-03-10T13:54:42.817Z,99205.28
2023-03-10T13:57:29.893Z,99212.22
2023-03-10T13:59:59.419Z,99204.47
2023-03-10T14:02:36.949Z,99200.16
2023-03-10T14:05:06.924Z,99214.84
2023-03-10T14:07:37.210Z,99219.19
2023-03-10T14:10:04.474Z,99216.59
2023-03-10T14:12:43.493Z,99218.31
2023-03-10T14:15:14.969Z,99227.84
2023-03-10T14:17:46.357Z,99229.56
2023-03-10T14:20:32.293Z,99246.03
2023-03-10T14:23:00.774Z,99241.72
2023-03-10T14:25:28.081Z,99253.00
2023-03-10T14:27:59.294Z,99253.81
2023-03-10T14:30:31.788Z,99260.84
2023-03-10T14:33:01.096Z,99258.31
2023-03-10T14:35:30.903Z,99266.16
2023-03-10T14:37:58.132Z,99267.00
2023-03-10T14:40:25.918Z,99273.94
2023-03-10T14:42:57.728Z,99275.66
2023-03-10T14:45:34.412Z,99283.47
2023-03-10T14:48:05.147Z,99294.66
2023-03-10T14:50:33.341Z,99311.13
2023-03-10T14:53:00.729Z,99320.59
2023-03-10T14:55:29.080Z,99326.72
2023-03-10T14:58:00.313Z,99310.34
2023-03-10T15:00:27.898Z,99325.94
2023-03-10T15:02:55.439Z,99317.34
2023-03-10T15:05:41.410Z,99311.31
2023-03-10T15:08:14.932Z,99311.44
2023-03-10T15:10:44.266Z,99306.31
2023-03-10T15:13:13.818Z,99310.66
2023-03-10T15:15:43.830Z,99320.97
2023-03-10T15:18:14.432Z,99324.41
2023-03-10T15:20:41.969Z,99343.34
2023-03-10T15:23:10.059Z,99345.09
2023-03-10T15:25:37.368Z,99352.00
2023-03-10T15:28:04.784Z,99356.28
2023-03-10T15:30:38.739Z,99366.66
2023-03-10T15:33:06.110Z,99346.59
2023-03-10T15:35:33.901Z,99359.44
2023-03-10T15:38:01.200Z,99369.75
2023-03-10T15:40:31.665Z,99365.34
2023-03-10T15:43:00.390Z,99360.94
2023-03-10T15:45:30.468Z,99365.28
2023-03-10T15:47:58.329Z,99376.50
2023-03-10T15:50:26.307Z,99367.91
2023-03-10T15:52:59.036Z,99378.22
2023-03-10T15:55:28.285Z,99370.44
2023-03-10T15:57:57.808Z,99388.56
2023-03-10T16:00:26.870Z,99385.91
2023-03-10T16:02:55.119Z,99382.47
2023-03-10T16:05:22.857Z,99384.22
2023-03-10T16:07:50.984Z,99386.81
2023-03-10T16:10:20.864Z,99385.06
2023-03-10T16:12:48.272Z,99397.16
2023-03-10T16:15:18.232Z,99404.97
2023-03-10T16:17:46.869Z,99408.44
2023-03-10T16:20:14.731Z,99420.53
2023-03-10T16:22:43.074Z,99432.56
2023-03-10T16:25:15.417Z,99433.34
2023-03-10T16:27:44.679Z,99447.91
2023-03-10T16:30:17.143Z,99456.50
2023-03-10T16:32:48.909Z,99462.53
2023-03-10T16:35:17.928Z,99479.81
2023-03-10T16:37:45.280Z,99488.50
2023-03-10T16:40:12.971Z,99487.66
2023-03-10T16:42:43.394Z,99498.94
2023-03-10T16:45:11.255Z,99511.97
2023-03-10T16:47:38.780Z,99518.06
2023-03-10T16:50:07.888Z,99534.56
2023-03-10T16:52:42.562Z,99529.38
2023-03-10T16:55:18.508Z,99548.31
2023-03-10T16:57:46.379Z,99562.09
2023-03-10T17:00:15.146Z,99558.59
2023-03-10T17:02:42.465Z,99578.47
2023-03-10T17:05:10.378Z,99594.00
2023-03-10T17:07:46.449Z,99601.53
2023-03-10T17:10:21.137Z,99607.25
2023-03-10T17:12:48.421Z,99611.25
2023-03-10T17:15:15.704Z,99627.47
2023-03-10T17:17:43.260Z,99635.09
2023-03-10T17:20:11.113Z,99639.34
2023-03-10T17:22:39.080Z,99647.88
2023-03-10T17:25:07.916Z,99639.97
2023-03-10T17:27:35.303Z,99644.28
2023-03-10T17:30:03.014Z,99655.50
2023-03-10T17:32:30.833Z,99657.25
2023-03-10T17:34:58.236Z,99658.81
2023-03-10T17:37:25.446Z,99657.81
2023-03-10T17:39:55.047Z,99653.44
2023-03-10T17:42:23.774Z,99652.63
2023-03-10T17:44:51.277Z,99656.88
2023-03-10T17:47:18.831Z,99644.84
2023-03-10T17:49:46.339Z,99648.34
2023-03-10T17:52:13.573Z,99656.22
2023-03-10T17:54:41.092Z,99657.28
2023-03-10T17:57:08.485Z,99666.03
2023-03-10T17:59:39.088Z,99681.66
2023-03-10T18:02:07.027Z,99680.84
2023-03-10T18:04:37.165Z,99701.56
2023-03-10T18:07:04.640Z,99710.25
2023-03-10T18:09:32.459Z,99729.25
2023-03-10T18:11:59.835Z,99732.66
2023-03-10T18:14:28.506Z,99747.38
2023-03-10T18:16:55.913Z,99752.66
2023-03-10T18:19:23.123Z,99763.03
2023-03-10T18:21:52.571Z,99776.84
2023-03-10T18:24:19.965Z,99791.53
2023-03-10T18:26:47.751Z,99782.78
2023-03-10T18:29:15.248Z,99794.00
2023-03-10T18:31:44.309Z,99794.81
2023-03-10T18:34:13.230Z,99810.31
2023-03-10T18:36:40.536Z,99817.16
2023-03-10T18:39:07.936Z,99824.88
2023-03-10T18:41:35.903Z,99829.94
2023-03-10T18:44:04.988Z,99829.88
2023-03-10T18:46:35.381Z,99843.59
2023-03-10T18:49:02.684Z,99848.69
2023-03-10T18:51:29.938Z,99855.56
2023-03-10T18:53:57.239Z,99858.97
2023-03-10T18:56:30.764Z,99864.09
2023-03-10T18:58:58.788Z,99864.88
2023-03-10T19:01:27.000Z,99864.88
2023-03-10T19:03:58.326Z,99870.94
2023-03-10T19:06:33.264Z,99871.78
2023-03-10T19:09:01.545Z,99873.56
2023-03-10T19:11:36.857Z,99878.75
2023-03-10T19:14:06.477Z,99882.22
2023-03-10T19:16:35.562Z,99885.66
2023-03-10T19:19:04.058Z,99896.03
2023-03-10T19:21:34.006Z,99892.63
2023-03-10T19:24:01.382Z,99902.09
2023-03-10T19:26:28.665Z,99905.56
2023-03-10T19:28:56.336Z,99912.47
2023-03-10T19:31:23.923Z,99916.78
2023-03-10T19:33:51.325Z,99915.97
2023-03-10T19:36:18.749Z,99917.69
2023-03-10T19:38:46.141Z,99929.78
2023-03-10T19:41:16.893Z,99932.28
2023-03-10T19:43:46.838Z,99934.88
2023-03-10T19:46:15.880Z,99938.34
2023-03-10T19:48:44.421Z,99940.91
2023-03-10T19:51:23.101Z,99952.91
2023-03-10T19:53:51.957Z,99963.28
2023-03-10T19:56:20.461Z,99956.25
2023-03-10T19:58:49.378Z,99968.44
2023-03-10T20:01:19.943Z,99976.16
2023-03-10T20:03:47.385Z,99978.75
2023-03-10T20:06:14.600Z,99987.44
2023-03-10T20:08:43.237Z,100003.03
2023-03-10T20:11:14.547Z,100009.09
2023-03-10T20:13:43.346Z,100033.25
2023-03-10T20:16:13.145Z,100018.47
2023-03-10T20:18:41.203Z,100021.84
2023-03-10T20:21:08.631Z,100019.94
2023-03-10T20:23:36.045Z,100022.31
2023-03-10T20:26:10.169Z,100030.84
2023-03-10T20:28:39.794Z,100037.72
2023-03-10T20:31:08.067Z,100033.47
2023-03-10T20:33:36.615Z,100034.41
2023-03-10T20:36:04.808Z,100042.34
2023-03-10T20:38:32.489Z,100053.69
2023-03-10T20:40:59.943Z,100051.19
2023-03-10T20:43:27.234Z,100066.00
2023-03-10T20:46:00.554Z,100075.66
2023-03-10T20:48:28.387Z,100092.06
2023-03-10T20:50:56.634Z,100085.19
2023-03-10T20:53:24.325Z,100095.59
2023-03-10T20:55:51.636Z,100093.00
2023-03-10T20:58:18.928Z,100111.06
2023-03-10T21:00:47.360Z,100102.31
2023-03-10T21:03:15.254Z,100106.56
2023-03-10T21:05:42.943Z,100103.09
2023-03-10T21:08:10.978Z,100122.94
2023-03-10T21:10:39.762Z,100133.31
2023-03-10T21:13:07.299Z,100135.16
2023-03-10T21:15:34.825Z,100138.69
2023-03-10T21:18:02.073Z,100128.31
2023-03-10T21:20:29.583Z,100136.97
2023-03-10T21:22:56.903Z,100142.09
2023-03-10T21:25:27.047Z,100149.03
2023-03-10T21:27:58.809Z,100149.91
2023-03-10T21:30:29.752Z,100164.66
2023-03-10T21:32:57.848Z,100177.63
2023-03-10T21:35:28.260Z,100177.69
2023-03-10T21:37:59.688Z,100169.84
2023-03-10T21:40:28.125Z,100172.41
2023-03-10T21:42:55.908Z,100174.88
2023-03-10T21:45:24.335Z,100181.72
2023-03-10T21:47:52.010Z,100193.81
2023-03-10T21:50:20.276Z,100190.34
2023-03-10T21:52:50.939Z,100199.91
2023-03-10T21:55:20.370Z,100211.19
2023-03-10T21:57:48.801Z,100206.09
2023-03-10T22:00:19.146Z,100206.28
2023-03-10T22:02:49.673Z,100209.94
2023-03-10T22:05:18.353Z,100206.56
2023-03-10T22:07:45.818Z,100203.19
2023-03-10T22:10:14.235Z,100214.53
2023-03-10T22:12:41.936Z,100219.78
2023-03-10T22:15:15.526Z,100217.25
2023-03-10T22:17:42.856Z,100220.78
2023-03-10T22:20:14.576Z,100227.69
2023-03-10T22:22:41.830Z,100230.34
2023-03-10T22:25:09.747Z,100233.88
2023-03-10T22:27:37.138Z,100239.97
2023-03-10T22:30:05.150Z,100246.03
2023-03-10T22:32:33.250Z,100236.47
2023-03-10T22:35:00.732Z,100250.28
2023-03-10T22:37:28.039Z,100251.09
2023-03-10T22:39:57.023Z,100263.97
2023-03-10T22:42:24.296Z,100271.72
2023-03-10T22:44:51.764Z,100275.06
2023-03-10T22:47:19.134Z,100278.50
2023-03-10T22:49:46.536Z,100285.34
2023-03-10T22:52:13.992Z,100284.50
2023-03-10T22:54:41.380Z,100293.97
2023-03-10T22:57:08.913Z,100287.94
2023-03-10T22:59:36.331Z,100299.16
2023-03-10T23:02:03.679Z,100294.84
2023-03-10T23:04:31.197Z,100300.91
2023-03-10T23:06:58.507Z,100320.00
2023-03-10T23:09:25.812Z,100313.06
2023-03-10T23:11:56.361Z,100320.75
2023-03-10T23:14:23.764Z,100329.38
2023-03-10T23:16:51.037Z,100330.25
2023-03-10T23:19:18.297Z,100347.50
2023-03-10T23:21:46.273Z,100356.16
2023-03-10T23:24:13.728Z,100358.75
2023-03-10T23:26:41.296Z,100358.81
2023-03-10T23:29:08.498Z,100370.16
2023-03-10T23:31:36.143Z,100360.69
2023-03-10T23:34:06.595Z,100354.50
2023-03-10T23:36:33.962Z,100351.84
2023-03-10T23:39:01.269Z,100360.47
2023-03-10T23:41:28.568Z,100364.00
2023-03-10T23:43:56.765Z,100363.16
2023-03-10T23:46:24.172Z,100371.81
2023-03-10T23:48:52.371Z,100373.56
2023-03-10T23:51:19.695Z,100381.47
2023-03-10T23:53:46.954Z,100379.81
2023-03-10T23:56:15.391Z,100397.13
2023-03-10T23:58:43.144Z,100395.47
